Home > Products > Valid Products > MTR

000
SAUS46 KPQR 240657
MTRREO
METAR KREO 240652Z AUTO 06005KT 10/06 A3008 RMK AO1 SLP172 T01000056





000
SAUS46 KPQR 240558
MTRREO
METAR KREO 240552Z AUTO 07008KT 10/07 A3008 RMK AO1 SLP174 T01000067
10150 20094 51007





000
SAUS46 KPQR 240458
MTRREO
METAR KREO 240452Z AUTO 05010KT 11/07 A3007 RMK AO1 SLP171 T01060067





000
SAUS46 KPQR 240458
MTRREO
METAR KREO 240452Z AUTO 05010KT 11/07 A3007 RMK AO1 SLP171 T01060067





000
SAUS46 KPQR 240353
MTRREO
METAR KREO 240352Z AUTO 08010KT 11/07 A3007 RMK AO1 SLP172 T01060067





000
SAUS46 KPQR 240353
MTRREO
METAR KREO 240352Z AUTO 08010KT 11/07 A3007 RMK AO1 SLP172 T01060067





000
SAUS46 KPQR 240253
MTRREO
METAR KREO 240252Z AUTO 06011KT 11/07 A3006 RMK AO1 SLP169 T01110072
51013





000
SAUS46 KPQR 240253
MTRREO
METAR KREO 240252Z AUTO 06011KT 11/07 A3006 RMK AO1 SLP169 T01110072
51013





000
SAUS46 KPQR 240153
MTRREO
METAR KREO 240152Z AUTO 22004KT 13/06 A3006 RMK AO1 SLP168 T01280056





000
SAUS46 KPQR 240153
MTRREO
METAR KREO 240152Z AUTO 22004KT 13/06 A3006 RMK AO1 SLP168 T01280056





000
SAUS46 KPQR 240053
MTRREO
METAR KREO 240052Z AUTO 20009KT 14/05 A3004 RMK AO1 SLP160 T01390050





000
SAUS46 KPQR 232353
MTRREO
METAR KREO 232352Z AUTO 20013KT 15/04 A3002 RMK AO1 SLP149 T01500039
10167 20133 53004





000
SAUS46 KPQR 232253
MTRREO
METAR KREO 232252Z AUTO 16010KT 14/06 A3001 RMK AO1 SLP146 T01390061





000
SAUS46 KPQR 232155
MTRREO
METAR KREO 232152Z AUTO 16012KT 16/04 A3000 RMK AO1 SLP141 T01560039





000
SAUS46 KPQR 232053
MTRREO
METAR KREO 232052Z AUTO 15014KT 16/04 A3000 RMK AO1 PK WND
18027/1957 SLP140 T01610044 56006





000
SAUS46 KPQR 231953
MTRREO
METAR KREO 231952Z AUTO 18024G31KT 16/03 A3001 RMK AO1 PK WND
18031/1951 SLP140 T01560033





000
SAUS46 KPQR 231953
MTRREO
METAR KREO 231952Z AUTO 18024G31KT 16/03 A3001 RMK AO1 PK WND
18031/1951 SLP140 T01560033





000
SAUS46 KPQR 231853
MTRREO
METAR KREO 231852Z AUTO 18018G23KT 14/03 A3001 RMK AO1 PK WND
16027/1822 SLP148 T01440033





000
SAUS46 KPQR 231853
MTRREO
METAR KREO 231852Z AUTO 18018G23KT 14/03 A3001 RMK AO1 PK WND
16027/1822 SLP148 T01440033





000
SAUS46 KPQR 231753
MTRREO
METAR KREO 231752Z AUTO 19012G25KT 14/03 A3003 RMK AO1 SLP152 60002
T01440033 10144 20100 58006





000
SAUS46 KPQR 231753
MTRREO
METAR KREO 231752Z AUTO 19012G25KT 14/03 A3003 RMK AO1 SLP152 60002
T01440033 10144 20100 58006





000
SAUS46 KPQR 231653
MTRREO
METAR KREO 231652Z AUTO 19007KT 13/07 A3004 RMK AO1 SLP158 T01330067





000
SAUS46 KPQR 231653
MTRREO
METAR KREO 231652Z AUTO 19007KT 13/07 A3004 RMK AO1 SLP158 T01330067





000
SAUS46 KPQR 231553
MTRREO
METAR KREO 231552Z AUTO 16008KT 12/07 A3006 RMK AO1 SLP163 T01220067





000
SAUS46 KPQR 231457 COR
MTRREO
METAR KREO 231452Z AUTO 16009KT 11/07 A3005 RMK AO1 SLP160 P0001
60002 T01060072 50008





000
SAUS46 KPQR 231457 COR
MTRREO
METAR KREO 231452Z AUTO 16009KT 11/07 A3005 RMK AO1 SLP160 P0001
60002 T01060072 50008





000
SAUS46 KPQR 231355
MTRREO
METAR KREO 231352Z AUTO 20012KT 11/06 A3005 RMK AO1 SLP161 P0001
T01060061





000
SAUS46 KPQR 231257
MTRREO
METAR KREO 231252Z AUTO 17005KT 10/06 A3003 RMK AO1 SLP155 T01000056





000
SAUS46 KPQR 231153
MTRREO
METAR KREO 231152Z AUTO 21005KT 11/05 A3002 RMK AO1 SLP148 T01110050
10156 20106 55000 $





000
SAUS46 KPQR 231053
MTRREO
METAR KREO 231052Z AUTO 22007KT 12/04 A3001 RMK AO1 SLP144 T01170044
$





000
SAUS46 KPQR 230953
MTRREO
METAR KREO 230952Z AUTO 21011KT 12/04 A3002 RMK AO1 PK WND
19032/0855 SLP145 T01220044 $





000
SAUS46 KPQR 230953
MTRREO
METAR KREO 230952Z AUTO 21011KT 12/04 A3002 RMK AO1 PK WND
19032/0855 SLP145 T01220044 $





000
SAUS46 KPQR 230853
MTRREO
METAR KREO 230852Z AUTO 19019G32KT 13/03 A3002 RMK AO1 PK WND
20032/0849 SLP146 T01330033 53002 $





000
SAUS46 KPQR 230753
MTRREO
METAR KREO 230752Z AUTO 20010KT 15/M02 A3000 RMK AO1 SLP137
T01501017 401830011 $





000
SAUS46 KPQR 230753
MTRREO
METAR KREO 230752Z AUTO 20010KT 15/M02 A3000 RMK AO1 SLP137
T01501017 401830011 $





000
SAUS46 KPQR 230653
MTRREO
METAR KREO 230652Z AUTO 28003KT 12/00 A3000 RMK AO1 SLP143 T01220000
$





000
SAUS46 KPQR 230553
MTRREO
METAR KREO 230552Z AUTO 12008KT 12/M01 A3001 RMK AO1 SLP151
T01221006 10167 20122 $





000
SAUS46 KPQR 230553
MTRREO
METAR KREO 230552Z AUTO 12008KT 12/M01 A3001 RMK AO1 SLP151
T01221006 10167 20122 $





000
SAUS46 KPQR 230453
MTRREO
METAR KREO 230452Z AUTO 31005KT 13/M02 A3001 RMK AO1 SLP151
T01331017 $





000
SAUS46 KPQR 230453
MTRREO
METAR KREO 230452Z AUTO 31005KT 13/M02 A3001 RMK AO1 SLP151
T01331017 $





000
SAUS46 KPQR 230353
MTRREO
METAR KREO 230352Z AUTO 11006KT 14/M02 A2998 RMK AO1 SLP143
T01391022





000
SAUS46 KPQR 230353
MTRREO
METAR KREO 230352Z AUTO 11006KT 14/M02 A2998 RMK AO1 SLP143
T01391022





000
SAUS46 KPQR 230253
MTRREO
METAR KREO 230252Z AUTO 18006KT 15/M03 A3000 RMK AO1 SLP149
T01501033 55000





000
SAUS46 KPQR 230153
MTRREO
METAR KREO 230152Z AUTO 17010KT 15/M03 A2998 RMK AO1 SLP147
T01501033





000
SAUS46 KPQR 230153
MTRREO
METAR KREO 230152Z AUTO 17010KT 15/M03 A2998 RMK AO1 SLP147
T01501033





000
SAUS46 KPQR 230053
MTRREO
METAR KREO 230052Z AUTO 15011KT 16/M03 A2999 RMK AO1 SLP152
T01561033





000
SAUS46 KPQR 230053
MTRREO
METAR KREO 230052Z AUTO 15011KT 16/M03 A2999 RMK AO1 SLP152
T01561033





000
SAUS46 KPQR 222353
MTRREO
METAR KREO 222352Z AUTO 16016KT 17/M04 A3000 RMK AO1 SLP148
T01671039 10183 20117 56014





000
SAUS46 KPQR 222353
MTRREO
METAR KREO 222352Z AUTO 16016KT 17/M04 A3000 RMK AO1 SLP148
T01671039 10183 20117 56014





000
SAUS46 KPQR 222253
MTRREO
METAR KREO 222252Z AUTO 15015G24KT 17/M03 A3001 RMK AO1 PK WND
15026/2209 SLP151 T01721033





000
SAUS46 KPQR 222253
MTRREO
METAR KREO 222252Z AUTO 15015G24KT 17/M03 A3001 RMK AO1 PK WND
15026/2209 SLP151 T01721033





000
SAUS46 KPQR 222153
MTRREO
METAR KREO 222152Z AUTO 14016G22KT 18/M03 A3001 RMK AO1 SLP158
T01781033





000
SAUS46 KPQR 222053
MTRREO
METAR KREO 222052Z AUTO 17010KT 17/M01 A3004 RMK AO1 SLP163
T01721011 58015





000
SAUS46 KPQR 221953
MTRREO
METAR KREO 221952Z AUTO 20006KT 16/M02 A3006 RMK AO1 SLP171
T01561017





000
SAUS46 KPQR 221856 COR
MTRREO
METAR KREO 221852Z AUTO 00000KT 14/M01 A3009 RMK AO1 SLP184
T01391006





000
SAUS46 KPQR 221855 COR
MTRREO
METAR KREO 221852Z AUTO 00000KT 14/M01 A3009 RMK AO1 SLP184
T01391006





000
SAUS46 KPQR 221854 COR
MTRREO
METAR KREO 221852Z AUTO 00000KT 14/M01 A3009 RMK AO1 SLP184
T01391006





000
SAUS46 KPQR 221853
MTRREO
METAR KREO 221852Z AUTO 00000KT 14/M01 A3009 RMK AO1 SLP184
T01391006





000
SAUS46 KPQR 221753
MTRREO
METAR KREO 221752Z AUTO 00000KT 12/M02 A3009 RMK AO1 SLP190
T01171017 10117 20022 51002





000
SAUS46 KPQR 221753
MTRREO
METAR KREO 221752Z AUTO 00000KT 12/M02 A3009 RMK AO1 SLP190
T01171017 10117 20022 51002





000
SAUS46 KPQR 221653
MTRREO
METAR KREO 221652Z AUTO 26003KT 11/M02 A3009 RMK AO1 SLP188
T01111022





000
SAUS46 KPQR 221653
MTRREO
METAR KREO 221652Z AUTO 26003KT 11/M02 A3009 RMK AO1 SLP188
T01111022





000
SAUS46 KPQR 221553
MTRREO
METAR KREO 221552Z AUTO 15009KT 08/M02 A3009 RMK AO1 SLP193
T00831017





000
SAUS46 KPQR 221553
MTRREO
METAR KREO 221552Z AUTO 15009KT 08/M02 A3009 RMK AO1 SLP193
T00831017





000
SAUS46 KPQR 221453
MTRREO
METAR KREO 221452Z AUTO 18005KT 06/M02 A3008 RMK AO1 SLP190
T00561017 53004





000
SAUS46 KPQR 221353
MTRREO
METAR KREO 221352Z AUTO 16012KT 05/M02 A3007 RMK AO1 SLP185
T00501017





000
SAUS46 KPQR 221253
MTRREO
METAR KREO 221252Z AUTO 00000KT 02/M02 A3007 RMK AO1 SLP185
T00221022





000
SAUS46 KPQR 221153
MTRREO
METAR KREO 221152Z AUTO 15009KT 05/M02 A3007 RMK AO1 SLP179 70011
T00501017 10067 20011 53001





000
SAUS46 KPQR 221053
MTRREO
METAR KREO 221052Z AUTO 17006KT 04/M02 A3007 RMK AO1 SLP177
T00441017





000
SAUS46 KPQR 220953
MTRREO
METAR KREO 220952Z AUTO 15006KT 01/M03 A3006 RMK AO1 SLP179
T00111028





000
SAUS46 KPQR 220953
MTRREO
METAR KREO 220952Z AUTO 15006KT 01/M03 A3006 RMK AO1 SLP179
T00111028





000
SAUS46 KPQR 220853
MTRREO
METAR KREO 220852Z AUTO VRB04KT 05/M02 A3007 RMK AO1 SLP177
T00501017 51001





000
SAUS46 KPQR 220753
MTRREO
METAR KREO 220752Z AUTO 18007KT 05/M02 A3006 RMK AO1 SLP176
T00501017 401440033





000
SAUS46 KPQR 220653
MTRREO
METAR KREO 220652Z AUTO 17008KT 05/M02 A3007 RMK AO1 SLP184
T00501017





000
SAUS46 KPQR 220553
MTRREO
METAR KREO 220552Z AUTO VRB04KT 04/M01 A3007 RMK AO1 SLP183
T00391011 10133 20033 53004





000
SAUS46 KPQR 220553
MTRREO
METAR KREO 220552Z AUTO VRB04KT 04/M01 A3007 RMK AO1 SLP183
T00391011 10133 20033 53004





000
SAUS46 KPQR 220453
MTRREO
METAR KREO 220452Z AUTO 14009KT 06/M01 A3005 RMK AO1 SLP177
T00561006





000
SAUS46 KPQR 220453
MTRREO
METAR KREO 220452Z AUTO 14009KT 06/M01 A3005 RMK AO1 SLP177
T00561006





000
SAUS46 KPQR 220353
MTRREO
METAR KREO 220352Z AUTO 13009KT 06/00 A3005 RMK AO1 SLP178 T00560000





000
SAUS46 KPQR 220253
MTRREO
METAR KREO 220252Z AUTO 11004KT 07/00 A3005 RMK AO1 SLP179 T00720000
53001





000
SAUS46 KPQR 220253
MTRREO
METAR KREO 220252Z AUTO 11004KT 07/00 A3005 RMK AO1 SLP179 T00720000
53001





000
SAUS46 KPQR 220153
MTRREO
METAR KREO 220152Z AUTO 07006KT 08/00 A3006 RMK AO1 SLP179 T00830000





000
SAUS46 KPQR 220053
MTRREO
METAR KREO 220052Z AUTO 00000KT 12/M03 A3004 RMK AO1 SLP167
T01171028





000
SAUS46 KPQR 212355
MTRREO
METAR KREO 212352Z AUTO 22005KT 13/M03 A3005 RMK AO1 SLP167
T01281033 10144 20094 56004





000
SAUS46 KPQR 212253
MTRREO
METAR KREO 212252Z AUTO 25008KT 14/M03 A3005 RMK AO1 SLP166
T01391028





000
SAUS46 KPQR 212253
MTRREO
METAR KREO 212252Z AUTO 25008KT 14/M03 A3005 RMK AO1 SLP166
T01391028





000
SAUS46 KPQR 212153
MTRREO
METAR KREO 212152Z AUTO 26007KT 14/M02 A3005 RMK AO1 SLP164
T01391022





000
SAUS46 KPQR 212153
MTRREO
METAR KREO 212152Z AUTO 26007KT 14/M02 A3005 RMK AO1 SLP164
T01391022





000
SAUS46 KPQR 212053
MTRREO
METAR KREO 212052Z AUTO 25011KT 14/M01 A3006 RMK AO1 SLP167
T01391011 58006





000
SAUS46 KPQR 211953
MTRREO
METAR KREO 211952Z AUTO 19006G16KT 12/00 A3007 RMK AO1 SLP174
T01220000





000
SAUS46 KPQR 211853
MTRREO
METAR KREO 211852Z AUTO VRB03KT 11/M01 A3009 RMK AO1 SLP181
T01061006





000
SAUS46 KPQR 211753
MTRREO
METAR KREO 211752Z AUTO 23009KT 09/01 A3008 RMK AO1 SLP180 60011
T00940006 10111 20056 51013





000
SAUS46 KPQR 211653
MTRREO
METAR KREO 211652Z AUTO 23013KT 10/02 A3007 RMK AO1 SLP173 T01000022





000
SAUS46 KPQR 211653
MTRREO
METAR KREO 211652Z AUTO 23013KT 10/02 A3007 RMK AO1 SLP173 T01000022





000
SAUS46 KPQR 211553
MTRREO
METAR KREO 211552Z AUTO 20009KT 07/03 A3006 RMK AO1 SLP169 T00720033





000
SAUS46 KPQR 211553
MTRREO
METAR KREO 211552Z AUTO 20009KT 07/03 A3006 RMK AO1 SLP169 T00720033





000
SAUS46 KPQR 211453
MTRREO
METAR KREO 211452Z AUTO 18008KT 06/03 A3004 RMK AO1 SLP161 P0001
60011 T00560033 53033





000
SAUS46 KPQR 211354
MTRREO
METAR KREO 211352Z AUTO 19008KT 06/04 A3000 RMK AO1 WSHFT 1257
SLP148 P0010 T00560039





000
SAUS46 KPQR 211315
MTRREO
SPECI KREO 211314Z AUTO 29010KT 06/03 A2998 RMK AO1 WSHFT 1257 P0004
T00610033





000
SAUS46 KPQR 211253
MTRREO
METAR KREO 211252Z AUTO 22019G26KT 08/02 A2995 RMK AO1 PK WND
20026/1251 SLP124 T00780017





000
SAUS46 KPQR 211153
MTRREO
METAR KREO 211152Z AUTO 21014G23KT 08/01 A2993 RMK AO1 SLP111 60001
70004 T00830011 10111 20083 53012





000
SAUS46 KPQR 211153
MTRREO
METAR KREO 211152Z AUTO 21014G23KT 08/01 A2993 RMK AO1 SLP111 60001
70004 T00830011 10111 20083 53012





000
SAUS46 KPQR 211054
MTRREO
METAR KREO 211052Z AUTO 22018G23KT 09/01 A2989 RMK AO1 SLP097
T00940011





000
SAUS46 KPQR 211054
MTRREO
METAR KREO 211052Z AUTO 22018G23KT 09/01 A2989 RMK AO1 SLP097
T00940011





000
SAUS46 KPQR 210953
MTRREO
METAR KREO 210952Z AUTO 20011KT 10/01 A2989 RMK AO1 SLP097 T01000011





000
SAUS46 KPQR 210853
MTRREO
METAR KREO 210852Z AUTO 19013KT 10/02 A2989 RMK AO1 SLP093 60001
T01000022 50006





000
SAUS46 KPQR 210753
MTRREO
METAR KREO 210752Z AUTO 15009KT 09/04 A2989 RMK AO1 SLP097 T00890039
402500028





    US Dept of Commerce
    National Oceanic and Atmospheric Administration
    National Weather Service
    1325 East West Highway
    Silver Spring, MD 20910
    Page Author: NWS Internet Services Team
Disclaimer
Information Quality
Credits
Glossary
Privacy Policy
Freedom of Information Act (FOIA)
About Us
Career Opportunities